Time;durP1;ratioP1;P1;durP2;ratioP2;P2;SDS_P1;SDS_P2;PMS_P1;PMS_P2;Temp;Humidity;BMP_temperature;BMP_pressure;BME280_temperature;BME280_humidity;BME280_pressure;Samples;Min_cycle;Max_cycle;Signal;HPM_P1;HPM_P2
2022/11/18 00:01:10;;;;;;;0.30;0.10;;;8.80;99.90;;;;;;5114648;28;20449;-58
2022/11/18 00:03:37;;;;;;;0.37;0.10;;;8.80;99.90;;;;;;5115429;28;20469;-58
2022/11/18 00:06:05;;;;;;;0.30;0.10;;;8.80;99.90;;;;;;5115346;28;20529;-57
2022/11/18 00:08:32;;;;;;;0.30;0.10;;;8.80;99.90;;;;;;5115431;28;20719;-58
2022/11/18 00:11:04;;;;;;;0.30;0.10;;;8.80;99.90;;;;;;5115399;28;20449;-59
2022/11/18 00:16:16;;;;;;;0.30;0.17;;;8.80;99.90;;;;;;5116889;28;20412;-58
2022/11/18 00:18:43;;;;;;;0.30;0.10;;;8.80;99.90;;;;;;5118935;28;20568;-58
2022/11/18 00:21:12;;;;;;;0.30;0.10;;;8.90;99.90;;;;;;5119562;28;20805;-58
2022/11/18 00:23:39;;;;;;;0.30;0.10;;;9.00;99.90;;;;;;5117113;28;20510;-59
2022/11/18 00:26:09;;;;;;;0.40;0.10;;;9.00;99.90;;;;;;5117864;28;20480;-58
2022/11/18 00:28:36;;;;;;;0.30;0.10;;;9.00;99.90;;;;;;5118767;28;20774;-58
2022/11/18 00:31:04;;;;;;;0.60;0.10;;;9.00;99.90;;;;;;5118379;28;20501;-58
2022/11/18 00:33:33;;;;;;;0.40;0.10;;;8.80;99.90;;;;;;5118504;28;20790;-58
2022/11/18 00:36:00;;;;;;;0.30;0.10;;;8.80;99.90;;;;;;5118373;28;20455;-57
2022/11/18 00:38:27;;;;;;;0.50;0.10;;;8.80;99.90;;;;;;5117899;28;20959;-58
2022/11/18 00:41:01;;;;;;;0.40;0.20;;;8.80;99.90;;;;;;5117945;28;20444;-58
2022/11/18 00:43:27;;;;;;;0.20;0.10;;;8.80;99.90;;;;;;5116591;28;20456;-57
2022/11/18 00:45:54;;;;;;;0.30;0.10;;;8.80;99.90;;;;;;5117494;28;20468;-57
2022/11/18 00:48:21;;;;;;;0.30;0.10;;;8.80;99.90;;;;;;5117642;28;20561;-59
2022/11/18 00:50:51;;;;;;;0.30;0.10;;;8.70;99.90;;;;;;5119156;28;20494;-58
2022/11/18 00:53:18;;;;;;;0.30;0.10;;;8.60;99.90;;;;;;5119117;28;20456;-57
2022/11/18 00:55:46;;;;;;;0.83;0.10;;;8.60;99.90;;;;;;5118583;28;20445;-58
2022/11/18 00:58:14;;;;;;;0.30;0.20;;;8.60;99.90;;;;;;5118899;28;20461;-58
2022/11/18 01:00:41;;;;;;;0.30;0.13;;;8.60;99.90;;;;;;5118320;28;20499;-59
2022/11/18 01:03:09;;;;;;;0.30;0.10;;;8.60;99.90;;;;;;5117870;28;20860;-58
2022/11/18 01:05:36;;;;;;;0.30;0.10;;;8.80;99.90;;;;;;5116749;28;20476;-58
2022/11/18 01:08:06;;;;;;;0.20;0.10;;;8.90;99.90;;;;;;5117366;28;20453;-58
2022/11/18 01:10:33;;;;;;;0.30;0.10;;;8.80;99.90;;;;;;5117570;28;20924;-58
2022/11/18 01:15:46;;;;;;;1.50;0.17;;;8.80;99.90;;;;;;5117941;28;20466;-56
2022/11/18 01:18:13;;;;;;;0.20;0.10;;;8.90;99.90;;;;;;5118165;28;20510;-57
2022/11/18 01:20:40;;;;;;;0.30;0.10;;;8.80;99.90;;;;;;5117879;28;20449;-57
2022/11/18 01:23:09;;;;;;;0.30;0.10;;;8.70;99.90;;;;;;5117782;28;20463;-57
2022/11/18 01:25:37;;;;;;;0.90;0.10;;;8.70;99.90;;;;;;5117626;28;20476;-57
2022/11/18 01:28:04;;;;;;;0.30;0.10;;;8.60;99.90;;;;;;5118082;28;20484;-58
2022/11/18 01:30:33;;;;;;;0.40;0.10;;;8.60;99.90;;;;;;5117796;28;20466;-58
2022/11/18 01:33:01;;;;;;;0.30;0.10;;;8.60;99.90;;;;;;5117109;28;20452;-58
2022/11/18 01:35:28;;;;;;;0.30;0.10;;;8.60;99.90;;;;;;5117919;28;20445;-58
2022/11/18 01:37:55;;;;;;;0.30;0.10;;;8.60;99.90;;;;;;5118018;28;20456;-58
2022/11/18 01:40:23;;;;;;;0.40;0.10;;;8.60;99.90;;;;;;5117830;28;20509;-56
2022/11/18 01:42:50;;;;;;;0.30;0.20;;;8.50;99.90;;;;;;5117973;28;20512;-57
2022/11/18 01:45:28;;;;;;;0.30;0.10;;;8.50;99.90;;;;;;5117594;28;20476;-56
2022/11/18 01:48:09;;;;;;;0.30;0.10;;;8.60;99.90;;;;;;5118055;28;20480;-59
2022/11/18 01:50:39;;;;;;;0.60;0.20;;;8.60;99.90;;;;;;5117087;28;20498;-55
2022/11/18 01:53:21;;;;;;;0.43;0.20;;;8.60;99.90;;;;;;5118045;28;20444;-57
2022/11/18 01:55:54;;;;;;;0.63;0.10;;;8.60;99.90;;;;;;5117886;28;20498;-57
2022/11/18 01:58:25;;;;;;;0.30;0.10;;;8.60;99.90;;;;;;5117362;28;20949;-57
2022/11/18 02:00:53;;;;;;;0.27;0.10;;;8.60;99.90;;;;;;5117430;28;20888;-58
2022/11/18 02:03:21;;;;;;;0.30;0.10;;;8.60;99.90;;;;;;5117654;28;20459;-56
2022/11/18 02:05:50;;;;;;;0.30;0.10;;;8.50;99.90;;;;;;5117224;28;20510;-56
2022/11/18 02:08:19;;;;;;;0.30;0.10;;;8.50;99.90;;;;;;5117525;28;20888;-55
2022/11/18 02:10:46;;;;;;;2.43;0.10;;;8.50;99.90;;;;;;5117389;28;20452;-57
2022/11/18 02:13:15;;;;;;;0.37;0.10;;;8.60;99.90;;;;;;5117252;28;20486;-57
2022/11/18 02:15:50;;;;;;;1.00;0.10;;;8.70;99.90;;;;;;5117115;28;20840;-56
2022/11/18 02:18:28;;;;;;;1.13;0.10;;;8.70;99.90;;;;;;5117224;28;20448;-57
2022/11/18 02:21:01;;;;;;;0.40;0.10;;;8.80;99.90;;;;;;5116985;28;20561;-54
2022/11/18 02:23:55;;;;;;;0.30;0.10;;;8.90;99.90;;;;;;5117428;28;20452;-56
2022/11/18 02:26:43;;;;;;;0.50;0.10;;;8.80;99.90;;;;;;5116768;28;20549;-56
2022/11/18 02:29:16;;;;;;;0.20;0.10;;;8.80;99.90;;;;;;5116934;28;20945;-54
2022/11/18 02:31:51;;;;;;;0.20;0.10;;;8.90;99.90;;;;;;5116838;28;20437;-56
2022/11/18 02:34:31;;;;;;;0.20;0.10;;;8.80;99.90;;;;;;5116839;28;20440;-56
2022/11/18 02:37:03;;;;;;;0.30;0.10;;;8.80;99.90;;;;;;5116725;28;20498;-55
2022/11/18 02:39:35;;;;;;;0.27;0.10;;;8.70;99.90;;;;;;5116154;28;20505;-54
2022/11/18 02:42:06;;;;;;;0.30;0.10;;;8.70;99.90;;;;;;5116756;28;20456;-55
2022/11/18 02:44:38;;;;;;;0.20;0.10;;;8.70;99.90;;;;;;5116832;28;20444;-55
2022/11/18 02:47:09;;;;;;;0.40;0.10;;;8.80;99.90;;;;;;5116507;28;20445;-52
2022/11/18 02:49:39;;;;;;;0.50;0.20;;;8.70;99.90;;;;;;5116617;28;20448;-53
2022/11/18 02:52:08;;;;;;;0.30;0.10;;;8.70;99.90;;;;;;5117007;28;20501;-52
2022/11/18 02:54:37;;;;;;;0.40;0.10;;;8.80;99.90;;;;;;5116862;28;20481;-55
2022/11/18 02:57:05;;;;;;;0.30;0.10;;;8.90;99.90;;;;;;5116454;28;20896;-55
2022/11/18 02:59:33;;;;;;;0.27;0.10;;;9.00;99.90;;;;;;5116448;28;20448;-56
2022/11/18 03:02:01;;;;;;;0.80;0.10;;;8.90;99.90;;;;;;5116556;28;20510;-53
2022/11/18 03:04:28;;;;;;;0.73;0.10;;;8.90;99.90;;;;;;5116943;28;20444;-53
2022/11/18 03:07:04;;;;;;;0.30;0.10;;;8.80;99.90;;;;;;5115928;28;20488;-55
2022/11/18 03:09:35;;;;;;;0.63;0.10;;;8.90;99.90;;;;;;5116501;28;20838;-56
2022/11/18 03:12:14;;;;;;;0.30;0.10;;;8.90;99.90;;;;;;5116349;28;20456;-54
2022/11/18 03:14:49;;;;;;;1.40;0.10;;;9.00;99.90;;;;;;5116591;28;20445;-53
2022/11/18 03:17:21;;;;;;;0.30;0.10;;;9.00;99.90;;;;;;5116046;28;20508;-51
2022/11/18 03:20:01;;;;;;;1.13;0.10;;;8.90;99.90;;;;;;5116297;28;20443;-54
2022/11/18 03:22:34;;;;;;;0.30;0.10;;;9.00;99.90;;;;;;5116401;28;20460;-53
2022/11/18 03:25:05;;;;;;;0.30;0.10;;;8.90;99.90;;;;;;5116052;28;20517;-55
2022/11/18 03:27:36;;;;;;;0.70;0.10;;;8.90;99.90;;;;;;5116104;28;20751;-55
2022/11/18 03:30:12;;;;;;;1.00;0.10;;;8.90;99.90;;;;;;5115628;28;20539;-53
2022/11/18 03:32:43;;;;;;;0.83;0.10;;;8.90;99.90;;;;;;5116097;28;20883;-54
2022/11/18 03:35:15;;;;;;;0.30;0.10;;;8.80;99.90;;;;;;5116251;28;20447;-55
2022/11/18 03:37:43;;;;;;;0.40;0.10;;;8.80;99.90;;;;;;5115846;28;20452;-55
2022/11/18 03:40:15;;;;;;;0.27;0.10;;;8.90;99.90;;;;;;5115696;28;20449;-53
2022/11/18 03:42:44;;;;;;;0.30;0.10;;;9.00;99.90;;;;;;5116226;28;20456;-52
2022/11/18 03:45:17;;;;;;;0.50;0.10;;;9.20;99.90;;;;;;5115843;28;20563;-51
2022/11/18 03:47:48;;;;;;;0.30;0.10;;;9.10;99.90;;;;;;5116025;28;20768;-54
2022/11/18 03:50:20;;;;;;;0.40;0.20;;;9.10;99.90;;;;;;5116328;28;20448;-55
2022/11/18 03:52:49;;;;;;;0.30;0.10;;;9.10;99.90;;;;;;5120255;28;20820;-55
2022/11/18 03:55:20;;;;;;;0.47;0.20;;;8.90;99.90;;;;;;5120040;28;20957;-52
2022/11/18 03:57:54;;;;;;;0.30;0.20;;;8.90;99.90;;;;;;5120074;28;20486;-53
2022/11/18 04:00:23;;;;;;;0.40;0.20;;;8.90;99.90;;;;;;5120265;28;20876;-54
2022/11/18 04:02:51;;;;;;;0.30;0.10;;;8.90;99.90;;;;;;5119773;28;20565;-53
2022/11/18 04:05:19;;;;;;;0.40;0.20;;;8.90;99.90;;;;;;5119748;28;20474;-54
2022/11/18 04:07:55;;;;;;;0.27;0.10;;;8.80;99.90;;;;;;5119878;28;20495;-50
2022/11/18 04:10:25;;;;;;;0.30;0.10;;;8.90;99.90;;;;;;5119785;28;20456;-49
2022/11/18 04:12:59;;;;;;;0.20;0.07;;;8.90;99.90;;;;;;5119892;28;20456;-55
2022/11/18 04:15:29;;;;;;;0.30;0.10;;;8.80;99.90;;;;;;5119696;28;20863;-53
2022/11/18 04:17:57;;;;;;;0.20;0.10;;;8.70;99.90;;;;;;5119927;28;20509;-55
2022/11/18 04:20:24;;;;;;;0.30;0.10;;;8.80;99.90;;;;;;5119872;28;20444;-50
2022/11/18 04:22:51;;;;;;;0.30;0.10;;;8.70;99.90;;;;;;5119816;28;20513;-54
2022/11/18 04:25:18;;;;;;;0.30;0.10;;;8.90;99.90;;;;;;5119539;28;20455;-52
2022/11/18 04:27:45;;;;;;;0.30;0.10;;;8.90;99.90;;;;;;5119858;28;20456;-52
2022/11/18 04:30:13;;;;;;;0.50;0.10;;;8.80;99.90;;;;;;5119565;28;20494;-53
2022/11/18 04:32:41;;;;;;;0.30;0.10;;;8.70;99.90;;;;;;5119562;28;20452;-53
2022/11/18 04:35:09;;;;;;;0.30;0.10;;;8.80;99.90;;;;;;5119699;28;20448;-53
2022/11/18 04:37:36;;;;;;;0.30;0.10;;;8.70;99.90;;;;;;5118784;28;20808;-53
2022/11/18 04:40:04;;;;;;;0.37;0.10;;;8.70;99.90;;;;;;5118838;28;20465;-52
2022/11/18 04:42:31;;;;;;;0.30;0.10;;;8.80;99.90;;;;;;5119318;28;20460;-49
2022/11/18 04:44:57;;;;;;;0.30;0.10;;;8.90;99.90;;;;;;5118890;28;20809;-54
2022/11/18 04:47:25;;;;;;;0.40;0.20;;;8.80;99.90;;;;;;5119064;28;20484;-54
2022/11/18 04:49:53;;;;;;;0.40;0.27;;;8.70;99.90;;;;;;5118814;28;20452;-52
2022/11/18 04:52:20;;;;;;;0.30;0.10;;;8.60;99.90;;;;;;5119282;28;20801;-50
2022/11/18 04:54:47;;;;;;;0.47;0.10;;;8.60;99.90;;;;;;5118856;28;20445;-53
2022/11/18 04:57:14;;;;;;;0.20;0.10;;;8.30;99.90;;;;;;5118882;28;20449;-54
2022/11/18 04:59:41;;;;;;;0.20;0.10;;;8.30;99.90;;;;;;5118811;28;20452;-53
2022/11/18 05:02:08;;;;;;;0.50;0.20;;;8.30;99.90;;;;;;5118268;28;20844;-51
2022/11/18 05:04:36;;;;;;;0.63;0.10;;;8.30;99.90;;;;;;5118870;28;20502;-53
2022/11/18 05:07:06;;;;;;;0.20;0.10;;;8.40;99.90;;;;;;5118609;28;20488;-52
2022/11/18 05:09:34;;;;;;;0.30;0.10;;;8.30;99.90;;;;;;5118686;28;20449;-51
2022/11/18 05:14:45;;;;;;;0.47;0.10;;;8.20;99.90;;;;;;5118492;28;20894;-50
2022/11/18 05:17:12;;;;;;;0.30;0.10;;;8.10;99.90;;;;;;5118499;28;20995;-54
2022/11/18 05:19:39;;;;;;;0.30;0.10;;;8.20;99.90;;;;;;5117453;28;20501;-50
2022/11/18 05:22:08;;;;;;;0.30;0.10;;;8.20;99.90;;;;;;5118064;28;20517;-53
2022/11/18 05:24:35;;;;;;;0.43;0.10;;;8.10;99.90;;;;;;5117361;28;20449;-52
2022/11/18 05:27:02;;;;;;;0.30;0.10;;;8.20;99.90;;;;;;5118207;28;20488;-53
2022/11/18 05:29:29;;;;;;;0.50;0.10;;;8.40;99.90;;;;;;5118050;28;20929;-53
2022/11/18 05:31:56;;;;;;;0.30;0.10;;;8.30;99.90;;;;;;5117137;28;20456;-54
2022/11/18 05:34:23;;;;;;;0.30;0.10;;;8.40;99.90;;;;;;5117953;28;20449;-51
2022/11/18 05:36:50;;;;;;;0.30;0.10;;;8.30;99.90;;;;;;5117478;28;20440;-53
2022/11/18 05:39:19;;;;;;;0.30;0.10;;;8.10;99.90;;;;;;5117795;28;20452;-51
2022/11/18 05:44:30;;;;;;;0.63;0.10;;;8.00;99.90;;;;;;5117443;28;20723;-53
2022/11/18 05:46:57;;;;;;;0.60;0.10;;;8.00;99.90;;;;;;5116303;28;20821;-53
2022/11/18 05:49:24;;;;;;;0.30;0.10;;;8.00;99.90;;;;;;5117149;28;20476;-47
2022/11/18 05:51:51;;;;;;;0.30;0.10;;;7.90;99.90;;;;;;5117462;28;20509;-48
2022/11/18 05:54:21;;;;;;;0.30;0.10;;;7.90;99.90;;;;;;5117282;28;20453;-50
2022/11/18 05:56:48;;;;;;;0.30;0.10;;;7.90;99.90;;;;;;5117089;28;20497;-50
2022/11/18 05:59:15;;;;;;;0.30;0.10;;;7.80;99.90;;;;;;5116997;28;20494;-50
2022/11/18 06:01:46;;;;;;;2.20;0.80;;;7.80;99.90;;;;;;5117202;28;20441;-52
2022/11/18 06:04:17;;;;;;;0.40;0.20;;;7.70;99.90;;;;;;5116369;28;20453;-50
2022/11/18 06:06:48;;;;;;;0.40;0.20;;;7.70;99.90;;;;;;5116478;28;20476;-52
2022/11/18 06:09:17;;;;;;;0.30;0.10;;;7.70;99.90;;;;;;5116161;28;20509;-52
2022/11/18 06:11:50;;;;;;;0.20;0.10;;;7.70;99.90;;;;;;5115820;28;20502;-51
2022/11/18 06:14:21;;;;;;;0.50;0.20;;;7.80;99.90;;;;;;5114426;28;20444;-49
2022/11/18 06:16:52;;;;;;;0.30;0.10;;;7.70;99.90;;;;;;5113643;28;20497;-54
2022/11/18 06:19:19;;;;;;;0.50;0.20;;;7.80;99.90;;;;;;5113844;28;20960;-54
2022/11/18 06:21:47;;;;;;;1.60;0.20;;;7.80;99.90;;;;;;5113254;28;20895;-53
2022/11/18 06:24:14;;;;;;;0.30;0.20;;;7.90;99.90;;;;;;5114389;28;20449;-51
2022/11/18 06:26:42;;;;;;;0.37;0.10;;;7.90;99.90;;;;;;5114483;28;20476;-52
2022/11/18 06:29:13;;;;;;;0.30;0.10;;;8.00;99.90;;;;;;5113002;28;20656;-53
2022/11/18 06:31:40;;;;;;;0.30;0.10;;;8.00;99.90;;;;;;5114789;28;20710;-50
2022/11/18 06:34:07;;;;;;;0.83;0.10;;;7.90;99.90;;;;;;5116516;28;20493;-53
2022/11/18 06:36:34;;;;;;;0.67;0.10;;;8.00;99.90;;;;;;5115470;28;20871;-52
2022/11/18 06:39:03;;;;;;;0.50;0.10;;;8.00;99.90;;;;;;5116823;28;20872;-53
2022/11/18 06:41:31;;;;;;;0.67;0.17;;;8.00;99.90;;;;;;5115067;28;20468;-52
2022/11/18 06:43:58;;;;;;;0.30;0.10;;;8.00;99.90;;;;;;5114803;28;20883;-50
2022/11/18 06:49:11;;;;;;;0.50;0.20;;;8.00;99.90;;;;;;5112393;28;20455;-51
2022/11/18 06:51:38;;;;;;;0.30;0.10;;;8.00;99.90;;;;;;5111647;28;20449;-48
2022/11/18 06:54:05;;;;;;;0.73;0.47;;;8.00;99.90;;;;;;5112867;28;20478;-50
2022/11/18 06:56:32;;;;;;;0.30;0.20;;;8.00;99.90;;;;;;5113000;28;20451;-52
2022/11/18 06:58:59;;;;;;;0.30;0.10;;;7.90;99.90;;;;;;5114007;28;20449;-51
2022/11/18 07:01:28;;;;;;;0.33;0.10;;;7.90;99.90;;;;;;5114553;28;20880;-50
2022/11/18 07:03:57;;;;;;;0.30;0.10;;;7.90;99.90;;;;;;5114440;28;20465;-53
2022/11/18 07:06:26;;;;;;;0.30;0.10;;;8.00;99.90;;;;;;5113246;28;20484;-55
2022/11/18 07:08:53;;;;;;;0.30;0.10;;;7.90;99.90;;;;;;5112783;28;20491;-53
2022/11/18 07:11:23;;;;;;;0.30;0.10;;;8.00;99.90;;;;;;5112607;28;20903;-49
2022/11/18 07:13:50;;;;;;;0.30;0.10;;;8.00;99.90;;;;;;5113859;28;20510;-52
2022/11/18 07:16:19;;;;;;;0.30;0.10;;;8.10;99.90;;;;;;5113692;28;20433;-49
2022/11/18 07:18:49;;;;;;;1.17;0.10;;;8.10;99.90;;;;;;5113486;28;20516;-51
2022/11/18 07:21:18;;;;;;;0.50;0.13;;;8.10;99.90;;;;;;5113532;28;20449;-50
2022/11/18 07:23:45;;;;;;;0.60;0.10;;;8.20;99.90;;;;;;5113387;28;20872;-51
2022/11/18 07:26:12;;;;;;;0.30;0.10;;;8.20;99.90;;;;;;5114838;28;20501;-50
2022/11/18 07:28:40;;;;;;;0.40;0.10;;;8.20;99.90;;;;;;5115795;28;20504;-50
2022/11/18 07:31:08;;;;;;;2.20;0.20;;;8.20;99.90;;;;;;5113883;28;20452;-51
2022/11/18 07:33:36;;;;;;;0.40;0.13;;;8.20;99.90;;;;;;5113788;28;20952;-52
2022/11/18 07:36:07;;;;;;;0.30;0.10;;;8.30;99.90;;;;;;5114235;28;20776;-47
2022/11/18 07:38:34;;;;;;;0.80;0.10;;;8.30;99.90;;;;;;5112791;28;20899;-48
2022/11/18 07:41:05;;;;;;;0.77;0.20;;;8.30;99.90;;;;;;5111198;28;20448;-48
2022/11/18 07:43:33;;;;;;;0.47;0.20;;;8.30;99.90;;;;;;5113600;28;20453;-49
2022/11/18 07:46:10;;;;;;;0.60;0.20;;;8.20;99.90;;;;;;5112001;28;20864;-50
2022/11/18 07:48:37;;;;;;;0.40;0.10;;;8.30;99.90;;;;;;5111996;28;20484;-50
2022/11/18 07:51:06;;;;;;;0.47;0.20;;;8.20;99.90;;;;;;5110952;28;20448;-53
2022/11/18 07:53:33;;;;;;;0.57;0.10;;;8.30;99.90;;;;;;5113269;28;20456;-50
2022/11/18 07:56:00;;;;;;;0.30;0.17;;;8.30;99.90;;;;;;5113931;28;20463;-49
2022/11/18 07:58:28;;;;;;;0.40;0.10;;;8.30;99.90;;;;;;5113457;28;20456;-50
2022/11/18 08:00:55;;;;;;;0.30;0.10;;;8.50;99.90;;;;;;5104920;28;20522;-50
2022/11/18 08:03:25;;;;;;;0.50;0.10;;;8.60;99.90;;;;;;5124132;27;20904;-52
2022/11/18 08:05:52;;;;;;;0.40;0.20;;;8.70;99.90;;;;;;5095485;28;20939;-51
2022/11/18 08:08:21;;;;;;;0.40;0.10;;;8.70;99.90;;;;;;5125536;27;20503;-52
2022/11/18 08:10:48;;;;;;;0.50;0.30;;;8.70;99.90;;;;;;5105985;28;20513;-51
2022/11/18 08:13:15;;;;;;;0.30;0.10;;;8.70;99.90;;;;;;5109568;28;20526;-53
2022/11/18 08:15:42;;;;;;;0.30;0.10;;;8.70;99.90;;;;;;5116086;28;20512;-49
2022/11/18 08:18:09;;;;;;;0.40;0.10;;;8.80;99.90;;;;;;5095294;28;20454;-51
2022/11/18 08:20:36;;;;;;;0.30;0.10;;;8.90;99.90;;;;;;5090936;28;20479;-53
2022/11/18 08:23:03;;;;;;;0.50;0.10;;;8.80;99.90;;;;;;5090777;28;20475;-49
2022/11/18 08:25:31;;;;;;;0.30;0.10;;;8.80;99.90;;;;;;5105347;28;20551;-47
2022/11/18 08:27:59;;;;;;;0.40;0.20;;;8.70;99.90;;;;;;5100435;28;20485;-48
2022/11/18 08:30:26;;;;;;;0.30;0.10;;;8.70;99.90;;;;;;5103345;28;20887;-50
2022/11/18 08:32:53;;;;;;;2.30;0.10;;;8.70;99.90;;;;;;5104414;28;20790;-50
2022/11/18 08:35:20;;;;;;;0.87;0.20;;;8.80;99.90;;;;;;5095200;28;20600;-52
2022/11/18 08:37:47;;;;;;;0.50;0.10;;;8.80;99.90;;;;;;5112813;28;20480;-51
2022/11/18 08:40:14;;;;;;;0.30;0.10;;;8.80;99.90;;;;;;5104499;28;20445;-51
2022/11/18 08:42:42;;;;;;;0.40;0.10;;;8.80;99.90;;;;;;5102019;28;20738;-50
2022/11/18 08:45:10;;;;;;;0.30;0.10;;;8.80;99.90;;;;;;5110728;28;20444;-53
2022/11/18 08:47:37;;;;;;;0.30;0.10;;;8.80;99.90;;;;;;5104333;28;20492;-48
2022/11/18 08:50:05;;;;;;;1.60;0.20;;;8.90;99.90;;;;;;5106631;28;20449;-51
2022/11/18 08:52:32;;;;;;;0.30;0.10;;;8.90;99.90;;;;;;5102102;28;20450;-52
2022/11/18 08:55:00;;;;;;;0.30;0.10;;;8.90;99.90;;;;;;5107065;28;20521;-51
2022/11/18 08:57:27;;;;;;;0.30;0.10;;;8.80;99.90;;;;;;5105779;28;20479;-53
2022/11/18 08:59:56;;;;;;;0.30;0.10;;;8.90;99.90;;;;;;5105008;28;20452;-51
2022/11/18 09:02:24;;;;;;;0.50;0.20;;;8.80;99.90;;;;;;5096907;28;20458;-53
2022/11/18 09:04:51;;;;;;;0.30;0.10;;;8.90;99.90;;;;;;5110410;27;20448;-50
2022/11/18 09:07:19;;;;;;;0.30;0.10;;;9.00;99.90;;;;;;5107879;27;20538;-52
2022/11/18 09:09:46;;;;;;;0.30;0.10;;;9.00;99.90;;;;;;5101872;28;20502;-49
2022/11/18 09:12:14;;;;;;;0.30;0.10;;;9.10;99.90;;;;;;5101147;28;20735;-50
2022/11/18 09:14:42;;;;;;;0.30;0.10;;;9.10;99.90;;;;;;5099283;28;20534;-52
2022/11/18 09:17:10;;;;;;;0.30;0.10;;;9.20;99.90;;;;;;5097036;28;20448;-51
2022/11/18 09:19:37;;;;;;;1.50;0.10;;;9.20;99.90;;;;;;5093790;28;20499;-52
2022/11/18 09:22:05;;;;;;;0.30;0.10;;;9.20;99.90;;;;;;5093432;28;20469;-52
2022/11/18 09:24:32;;;;;;;0.60;0.10;;;9.30;99.90;;;;;;5094777;28;20510;-51
2022/11/18 09:26:59;;;;;;;0.30;0.10;;;9.20;99.90;;;;;;5094681;28;20852;-48
2022/11/18 09:29:26;;;;;;;0.30;0.10;;;9.10;99.90;;;;;;5095534;28;20950;-48
2022/11/18 09:31:54;;;;;;;0.63;0.10;;;9.20;99.90;;;;;;5096443;28;20849;-50
2022/11/18 09:34:22;;;;;;;0.30;0.10;;;9.10;99.90;;;;;;5095876;28;20450;-50
2022/11/18 09:36:49;;;;;;;0.30;0.10;;;9.10;99.90;;;;;;5094064;28;20781;-51
2022/11/18 09:39:16;;;;;;;0.60;0.20;;;9.10;99.90;;;;;;5094855;28;20453;-48
2022/11/18 09:41:47;;;;;;;0.30;0.10;;;9.00;99.90;;;;;;5095635;28;20445;-49
2022/11/18 09:44:30;;;;;;;0.30;0.10;;;9.10;99.90;;;;;;5092975;28;20449;-46
2022/11/18 09:47:09;;;;;;;0.50;0.10;;;9.10;99.90;;;;;;5095872;28;20795;-51
2022/11/18 09:49:40;;;;;;;0.43;0.13;;;9.10;99.90;;;;;;5096016;28;20495;-52
2022/11/18 09:52:15;;;;;;;0.30;0.10;;;9.30;99.90;;;;;;5095907;28;21061;-54
2022/11/18 09:54:42;;;;;;;0.47;0.10;;;9.30;99.90;;;;;;5113589;28;20498;-54
2022/11/18 09:57:12;;;;;;;0.40;0.20;;;9.20;99.90;;;;;;5116175;28;20864;-51
2022/11/18 09:59:40;;;;;;;0.30;0.10;;;9.30;99.90;;;;;;5114685;28;20441;-51
2022/11/18 10:02:27;;;;;;;0.30;0.10;;;9.40;99.90;;;;;;5113217;28;20448;-50
2022/11/18 10:05:00;;;;;;;0.50;0.20;;;9.50;99.90;;;;;;5114926;28;20497;-51
2022/11/18 10:07:38;;;;;;;0.50;0.20;;;9.50;99.90;;;;;;5109536;28;20535;-52
2022/11/18 10:10:15;;;;;;;0.40;0.20;;;9.70;99.90;;;;;;5095407;28;20502;-51
2022/11/18 10:12:50;;;;;;;0.80;0.30;;;9.60;99.90;;;;;;5098000;28;20511;-54
2022/11/18 10:15:24;;;;;;;0.50;0.20;;;9.50;99.90;;;;;;5094948;28;20762;-52
2022/11/18 10:18:00;;;;;;;0.70;0.40;;;9.50;99.90;;;;;;5110782;28;20452;-48
2022/11/18 10:20:38;;;;;;;0.87;0.20;;;9.50;99.90;;;;;;5092998;28;20449;-48
2022/11/18 10:23:12;;;;;;;0.60;0.27;;;9.60;99.90;;;;;;5093463;28;20457;-52
2022/11/18 10:25:39;;;;;;;0.50;0.23;;;9.60;99.90;;;;;;5092524;28;20449;-50
2022/11/18 10:28:17;;;;;;;0.30;0.10;;;9.70;99.90;;;;;;5091764;28;20837;-49
2022/11/18 10:30:44;;;;;;;1.57;0.30;;;9.70;99.90;;;;;;5093427;28;20526;-52
2022/11/18 10:33:26;;;;;;;0.40;0.20;;;9.80;99.90;;;;;;5093544;28;20497;-49
2022/11/18 10:38:46;;;;;;;0.90;0.20;;;10.00;99.90;;;;;;5130563;27;20973;-53
2022/11/18 10:41:16;;;;;;;3.73;0.30;;;10.40;99.90;;;;;;5108340;28;20440;-50
2022/11/18 10:43:47;;;;;;;0.60;0.33;;;10.50;99.90;;;;;;5109643;28;20628;-51
2022/11/18 10:46:24;;;;;;;0.40;0.20;;;10.60;99.90;;;;;;5108552;28;20444;-49
2022/11/18 10:49:13;;;;;;;0.50;0.20;;;10.70;99.90;;;;;;5092725;28;21916;-54
2022/11/18 10:51:41;;;;;;;0.40;0.20;;;10.80;99.90;;;;;;5122046;28;20481;-50
2022/11/18 10:54:15;;;;;;;0.60;0.20;;;10.80;99.90;;;;;;5130723;28;20725;-48
2022/11/18 10:56:51;;;;;;;0.40;0.20;;;10.60;99.90;;;;;;5130504;28;20575;-59
2022/11/18 10:59:28;;;;;;;0.40;0.20;;;10.50;99.90;;;;;;5129325;28;21005;-56
2022/11/18 11:02:10;;;;;;;0.57;0.30;;;10.50;99.90;;;;;;5121205;27;20479;-54
2022/11/18 11:04:38;;;;;;;0.40;0.20;;;10.50;99.90;;;;;;5128457;28;21160;-54
2022/11/18 11:07:16;;;;;;;0.47;0.30;;;10.60;99.90;;;;;;5127330;27;20444;-56
2022/11/18 11:09:45;;;;;;;1.57;0.20;;;10.50;99.90;;;;;;5130532;28;20513;-54
2022/11/18 11:12:16;;;;;;;0.40;0.20;;;10.30;99.90;;;;;;5131393;28;20887;-53
2022/11/18 11:14:51;;;;;;;0.40;0.20;;;10.30;99.90;;;;;;5128290;28;20500;-56
2022/11/18 11:17:22;;;;;;;0.50;0.30;;;10.30;99.90;;;;;;5127641;27;20475;-55
2022/11/18 11:19:52;;;;;;;0.80;0.40;;;10.40;99.90;;;;;;5127411;28;20531;-53
2022/11/18 11:22:19;;;;;;;0.60;0.37;;;10.50;99.90;;;;;;5119533;28;20452;-57
2022/11/18 11:24:47;;;;;;;0.63;0.20;;;10.50;99.90;;;;;;5123560;28;20501;-55
2022/11/18 11:27:39;;;;;;;0.40;0.27;;;10.60;99.90;;;;;;5128879;28;20540;-56
2022/11/18 11:30:14;;;;;;;1.23;0.20;;;10.60;99.90;;;;;;5128104;28;20439;-52
2022/11/18 11:33:00;;;;;;;1.07;0.30;;;10.70;99.90;;;;;;5123022;28;20487;-55
2022/11/18 11:35:33;;;;;;;0.40;0.20;;;10.80;99.90;;;;;;5129796;28;20494;-54
2022/11/18 11:38:06;;;;;;;0.40;0.20;;;10.90;99.90;;;;;;5127627;28;21007;-56
2022/11/18 11:40:39;;;;;;;0.40;0.20;;;11.00;99.90;;;;;;5121299;27;20445;-56
2022/11/18 11:43:31;;;;;;;2.20;0.47;;;11.00;99.90;;;;;;5120286;28;20483;-55
2022/11/18 11:46:19;;;;;;;0.73;0.30;;;11.10;99.90;;;;;;5127019;28;20559;-54
2022/11/18 11:48:57;;;;;;;0.63;0.27;;;11.00;99.90;;;;;;5121696;27;20465;-55
2022/11/18 11:51:32;;;;;;;0.40;0.20;;;10.80;99.90;;;;;;5115363;28;20498;-55
2022/11/18 11:54:24;;;;;;;0.63;0.20;;;10.60;99.90;;;;;;5114809;28;20436;-56
2022/11/18 11:56:58;;;;;;;0.40;0.20;;;10.70;99.90;;;;;;5112867;28;20475;-56
2022/11/18 11:59:31;;;;;;;0.70;0.20;;;10.70;99.90;;;;;;5112562;28;20472;-57
2022/11/18 12:02:27;;;;;;;0.60;0.20;;;10.80;99.90;;;;;;5113324;28;20480;-57
2022/11/18 12:04:57;;;;;;;0.50;0.20;;;10.80;99.90;;;;;;5111771;28;20655;-56
2022/11/18 12:07:27;;;;;;;0.40;0.10;;;10.70;99.90;;;;;;5113249;28;20448;-57
2022/11/18 12:10:15;;;;;;;0.30;0.20;;;10.60;99.90;;;;;;5112029;28;20468;-57
2022/11/18 12:12:52;;;;;;;0.37;0.20;;;10.60;99.90;;;;;;5112927;28;20891;-54
2022/11/18 12:15:41;;;;;;;0.30;0.20;;;10.50;99.90;;;;;;5112585;28;20497;-56
2022/11/18 12:18:16;;;;;;;0.43;0.27;;;10.30;99.90;;;;;;5114327;28;20750;-56
2022/11/18 12:20:45;;;;;;;0.50;0.10;;;10.20;99.90;;;;;;5114685;28;20898;-57
2022/11/18 12:23:15;;;;;;;0.40;0.20;;;10.10;99.90;;;;;;5115781;28;20452;-57
2022/11/18 12:25:52;;;;;;;1.63;0.20;;;10.30;99.90;;;;;;5114487;28;20886;-57
2022/11/18 12:28:27;;;;;;;0.60;0.20;;;10.30;99.90;;;;;;5114554;28;20619;-55
2022/11/18 12:31:41;;;;;;;1.00;0.30;;;10.20;99.90;;;;;;5114824;27;20886;-54
2022/11/18 12:34:27;;;;;;;0.50;0.20;;;10.30;99.90;;;;;;5115279;28;20464;-54
2022/11/18 12:36:55;;;;;;;0.40;0.20;;;10.20;99.90;;;;;;5114319;28;20539;-56
2022/11/18 12:39:50;;;;;;;0.30;0.20;;;10.30;99.90;;;;;;5113665;28;20521;-54
2022/11/18 12:45:58;;;;;;;0.90;0.20;;;10.10;99.90;;;;;;5113793;28;20582;-56
2022/11/18 12:48:39;;;;;;;0.30;0.20;;;10.20;99.90;;;;;;5076207;28;20453;-57
2022/11/18 12:51:40;;;;;;;0.50;0.30;;;9.90;99.90;;;;;;5115821;28;20471;-54
2022/11/18 12:54:26;;;;;;;1.03;0.30;;;9.90;99.90;;;;;;5113879;28;20440;-57
2022/11/18 12:56:53;;;;;;;0.53;0.27;;;9.80;99.90;;;;;;5107792;28;20496;-55
2022/11/18 12:59:27;;;;;;;0.90;0.30;;;9.80;99.90;;;;;;5112931;28;20837;-57
2022/11/18 13:02:16;;;;;;;1.57;0.50;;;9.80;99.90;;;;;;5112891;28;20774;-56
2022/11/18 13:04:43;;;;;;;0.50;0.40;;;10.10;99.90;;;;;;5116059;28;20449;-58
2022/11/18 13:08:11;;;;;;;1.47;0.30;;;10.40;99.90;;;;;;5115331;28;20835;-57
2022/11/18 13:10:11;;;;;;;2.93;0.30;;;10.70;99.90;;;;;;5112591;28;20433;-57
2022/11/18 13:12:38;;;;;;;0.83;0.33;;;10.70;99.90;;;;;;5114252;28;20488;-58
2022/11/18 13:18:11;;;;;;;0.60;0.30;;;10.90;99.90;;;;;;5095330;28;20472;-58
2022/11/18 13:20:40;;;;;;;0.30;0.20;;;10.90;99.90;;;;;;5095933;28;20502;-58
2022/11/18 13:26:21;;;;;;;0.30;0.13;;;10.80;99.90;;;;;;5094448;28;20417;-58
2022/11/18 13:29:14;;;;;;;0.47;0.30;;;10.70;99.90;;;;;;5094353;28;20850;-58
2022/11/18 13:31:48;;;;;;;0.60;0.20;;;10.60;99.90;;;;;;5092694;28;20460;-58
2022/11/18 13:34:21;;;;;;;0.90;0.30;;;10.70;99.90;;;;;;5094397;28;20495;-58
2022/11/18 13:36:50;;;;;;;0.50;0.30;;;10.70;99.90;;;;;;5093599;28;20485;-58
2022/11/18 13:39:23;;;;;;;0.50;0.30;;;10.60;99.90;;;;;;5094151;28;20513;-59
2022/11/18 13:41:59;;;;;;;1.23;0.30;;;10.60;99.90;;;;;;5094312;28;20454;-58